首页
METAR-TAF:

METAR-TAF

机场 :

Yeovilton, 英格兰

纬度: 51-00N, 经度: 002-38W, 海拔: 23米

当前天气观测

该预报发布于1小时和6分钟前的17:50 UTC
风速7节,风向
温度 22°C
湿度 78%
气压 1021 hPa
能见度10公里或以上
少量云层高于1000英尺
多云层高于3500英尺

METAR: EGDY 221750Z 19007KT 9999 FEW010 BKN035 22/18 Q1021 NOSIG RMK BLU BLU

时间: 19:56 (18:56 UTC)

预报

该预报发布于1小时和50分钟前的17:06 UTC
预报有效从22日的 18点(UTC)到 23日的 03点(UTC)
风速10节,风向
能见度10公里或以上
少量云层高于1000英尺
散云层高于3000英尺
成为
从 22日的 20点(UTC)到 22日的 22点(UTC)
风速4节,风向多变
能見度: 5000
多云层高于800英尺
轻雾
成为
从 22日的 22点(UTC)到 22日的 24点(UTC)
能見度: 3000
散云层高于500英尺
轻雾, 浅雾
几率 40%
从 22日的 22点(UTC)到 23日的 03点(UTC)
能見度: 0500
散云层低于100英尺

TAF: EGDY 221706Z 2218/2303 19010KT 9999 FEW010 SCT030 BECMG 2220/2222 VRB04KT 5000 BR BKN008 BECMG 2222/2224 3000 BR MIFG SCT005 PROB40 2222/2303 0500 FG SCT000

超过4000个机场的气象观测和天气预报(METAR&TAF报告)。

可查询的气象台以黄色和红色小点在地图上表示。

将鼠标移到小点上方,可查看气象台名称。

然后点击查看天气观测和预报。

如需切换地图:点击带黑十字的绿色按钮放大地图;点击带横线的绿色按钮缩小地图;或者点击绿色箭头查看邻近地区的地图。


METAR-TAF: